sensor_id;sensor_type;location;lat;lon;timestamp;P1;durP1;ratioP1;P2;durP2;ratioP2
17345;SDS011;8790;53.590;10.002;2023-10-19T00:00:02;7.90;;;6.17;;
17345;SDS011;8790;53.590;10.002;2023-10-19T00:02:50;8.90;;;6.50;;
17345;SDS011;8790;53.590;10.002;2023-10-19T00:05:24;8.77;;;5.80;;
17345;SDS011;8790;53.590;10.002;2023-10-19T00:07:58;8.53;;;6.77;;
17345;SDS011;8790;53.590;10.002;2023-10-19T00:10:30;8.67;;;6.57;;
17345;SDS011;8790;53.590;10.002;2023-10-19T00:13:05;8.90;;;6.33;;
17345;SDS011;8790;53.590;10.002;2023-10-19T00:15:38;9.47;;;6.27;;
17345;SDS011;8790;53.590;10.002;2023-10-19T00:18:10;8.47;;;6.67;;
17345;SDS011;8790;53.590;10.002;2023-10-19T00:20:54;10.20;;;7.00;;
17345;SDS011;8790;53.590;10.002;2023-10-19T00:23:30;9.60;;;7.10;;
17345;SDS011;8790;53.590;10.002;2023-10-19T00:26:02;11.70;;;7.10;;
17345;SDS011;8790;53.590;10.002;2023-10-19T00:28:38;9.57;;;7.37;;
17345;SDS011;8790;53.590;10.002;2023-10-19T00:31:10;10.53;;;6.60;;
17345;SDS011;8790;53.590;10.002;2023-10-19T00:33:42;10.77;;;7.27;;
17345;SDS011;8790;53.590;10.002;2023-10-19T00:36:13;11.73;;;7.37;;
17345;SDS011;8790;53.590;10.002;2023-10-19T00:38:46;10.67;;;7.63;;
17345;SDS011;8790;53.590;10.002;2023-10-19T00:41:23;9.43;;;6.93;;
17345;SDS011;8790;53.590;10.002;2023-10-19T00:43:59;10.13;;;7.40;;
17345;SDS011;8790;53.590;10.002;2023-10-19T00:46:37;10.30;;;7.60;;
17345;SDS011;8790;53.590;10.002;2023-10-19T00:49:13;11.37;;;7.57;;
17345;SDS011;8790;53.590;10.002;2023-10-19T00:51:45;9.80;;;7.30;;
17345;SDS011;8790;53.590;10.002;2023-10-19T00:54:26;10.20;;;7.80;;
17345;SDS011;8790;53.590;10.002;2023-10-19T00:57:03;10.23;;;7.70;;
17345;SDS011;8790;53.590;10.002;2023-10-19T00:59:38;11.20;;;7.93;;
17345;SDS011;8790;53.590;10.002;2023-10-19T01:02:17;10.47;;;7.07;;
17345;SDS011;8790;53.590;10.002;2023-10-19T01:04:59;11.03;;;7.07;;
17345;SDS011;8790;53.590;10.002;2023-10-19T01:07:31;10.63;;;7.03;;
17345;SDS011;8790;53.590;10.002;2023-10-19T01:10:08;10.57;;;7.47;;
17345;SDS011;8790;53.590;10.002;2023-10-19T01:12:42;11.57;;;7.40;;
17345;SDS011;8790;53.590;10.002;2023-10-19T01:15:14;11.83;;;7.60;;
17345;SDS011;8790;53.590;10.002;2023-10-19T01:17:47;10.70;;;7.60;;
17345;SDS011;8790;53.590;10.002;2023-10-19T01:20:24;10.30;;;7.43;;
17345;SDS011;8790;53.590;10.002;2023-10-19T01:23:19;11.00;;;7.43;;
17345;SDS011;8790;53.590;10.002;2023-10-19T01:25:58;12.03;;;7.03;;
17345;SDS011;8790;53.590;10.002;2023-10-19T01:28:38;11.80;;;8.33;;
17345;SDS011;8790;53.590;10.002;2023-10-19T01:31:14;11.47;;;7.00;;
17345;SDS011;8790;53.590;10.002;2023-10-19T01:33:46;9.90;;;7.03;;
17345;SDS011;8790;53.590;10.002;2023-10-19T01:36:18;8.57;;;6.83;;
17345;SDS011;8790;53.590;10.002;2023-10-19T01:39:01;9.13;;;7.47;;
17345;SDS011;8790;53.590;10.002;2023-10-19T01:41:33;9.87;;;7.23;;
17345;SDS011;8790;53.590;10.002;2023-10-19T01:44:05;10.53;;;7.23;;
17345;SDS011;8790;53.590;10.002;2023-10-19T01:46:36;9.93;;;7.33;;
17345;SDS011;8790;53.590;10.002;2023-10-19T01:49:08;12.67;;;7.87;;
17345;SDS011;8790;53.590;10.002;2023-10-19T01:51:38;9.17;;;6.77;;
17345;SDS011;8790;53.590;10.002;2023-10-19T01:54:11;10.97;;;7.47;;
17345;SDS011;8790;53.590;10.002;2023-10-19T01:56:42;8.47;;;6.97;;
17345;SDS011;8790;53.590;10.002;2023-10-19T01:59:14;10.77;;;7.57;;
17345;SDS011;8790;53.590;10.002;2023-10-19T02:01:46;10.93;;;7.57;;
17345;SDS011;8790;53.590;10.002;2023-10-19T02:04:19;9.57;;;6.83;;
17345;SDS011;8790;53.590;10.002;2023-10-19T02:06:51;9.83;;;7.43;;
17345;SDS011;8790;53.590;10.002;2023-10-19T02:09:24;11.50;;;7.60;;
17345;SDS011;8790;53.590;10.002;2023-10-19T02:11:57;10.27;;;6.67;;
17345;SDS011;8790;53.590;10.002;2023-10-19T02:14:29;11.23;;;7.67;;
17345;SDS011;8790;53.590;10.002;2023-10-19T02:17:00;11.33;;;7.60;;
17345;SDS011;8790;53.590;10.002;2023-10-19T02:19:34;10.40;;;7.63;;
17345;SDS011;8790;53.590;10.002;2023-10-19T02:22:04;11.27;;;7.67;;
17345;SDS011;8790;53.590;10.002;2023-10-19T02:24:39;12.57;;;7.90;;
17345;SDS011;8790;53.590;10.002;2023-10-19T02:27:10;10.67;;;8.03;;
17345;SDS011;8790;53.590;10.002;2023-10-19T02:29:41;10.13;;;7.10;;
17345;SDS011;8790;53.590;10.002;2023-10-19T02:32:12;10.67;;;7.47;;
17345;SDS011;8790;53.590;10.002;2023-10-19T02:34:48;10.47;;;7.97;;
17345;SDS011;8790;53.590;10.002;2023-10-19T02:37:18;12.63;;;8.03;;
17345;SDS011;8790;53.590;10.002;2023-10-19T02:39:51;11.60;;;7.53;;
17345;SDS011;8790;53.590;10.002;2023-10-19T02:42:22;10.93;;;7.60;;
17345;SDS011;8790;53.590;10.002;2023-10-19T02:44:53;11.80;;;7.77;;
17345;SDS011;8790;53.590;10.002;2023-10-19T02:47:24;10.60;;;8.07;;
17345;SDS011;8790;53.590;10.002;2023-10-19T02:49:58;11.23;;;7.53;;
17345;SDS011;8790;53.590;10.002;2023-10-19T02:52:29;12.43;;;7.90;;
17345;SDS011;8790;53.590;10.002;2023-10-19T02:55:02;13.33;;;8.57;;
17345;SDS011;8790;53.590;10.002;2023-10-19T02:57:35;10.80;;;7.93;;
17345;SDS011;8790;53.590;10.002;2023-10-19T03:00:06;12.50;;;8.10;;
17345;SDS011;8790;53.590;10.002;2023-10-19T03:02:42;13.13;;;8.60;;
17345;SDS011;8790;53.590;10.002;2023-10-19T03:05:13;11.10;;;8.07;;
17345;SDS011;8790;53.590;10.002;2023-10-19T03:07:45;12.43;;;8.07;;
17345;SDS011;8790;53.590;10.002;2023-10-19T03:10:18;10.30;;;7.83;;
17345;SDS011;8790;53.590;10.002;2023-10-19T03:12:53;11.10;;;7.80;;
17345;SDS011;8790;53.590;10.002;2023-10-19T03:15:27;12.10;;;8.43;;
17345;SDS011;8790;53.590;10.002;2023-10-19T03:18:00;11.60;;;8.00;;
17345;SDS011;8790;53.590;10.002;2023-10-19T03:20:31;10.87;;;7.77;;
17345;SDS011;8790;53.590;10.002;2023-10-19T03:23:03;11.90;;;8.13;;
17345;SDS011;8790;53.590;10.002;2023-10-19T03:25:36;14.37;;;8.03;;
17345;SDS011;8790;53.590;10.002;2023-10-19T03:28:25;10.80;;;7.43;;
17345;SDS011;8790;53.590;10.002;2023-10-19T03:30:57;12.70;;;8.03;;
17345;SDS011;8790;53.590;10.002;2023-10-19T03:33:31;13.67;;;8.43;;
17345;SDS011;8790;53.590;10.002;2023-10-19T03:36:06;11.83;;;8.00;;
17345;SDS011;8790;53.590;10.002;2023-10-19T03:38:43;11.53;;;8.00;;
17345;SDS011;8790;53.590;10.002;2023-10-19T03:41:17;11.93;;;8.13;;
17345;SDS011;8790;53.590;10.002;2023-10-19T03:43:51;13.37;;;8.40;;
17345;SDS011;8790;53.590;10.002;2023-10-19T03:46:24;11.63;;;8.47;;
17345;SDS011;8790;53.590;10.002;2023-10-19T03:49:00;11.53;;;8.30;;
17345;SDS011;8790;53.590;10.002;2023-10-19T03:51:40;14.27;;;8.90;;
17345;SDS011;8790;53.590;10.002;2023-10-19T03:54:28;14.23;;;8.77;;
17345;SDS011;8790;53.590;10.002;2023-10-19T03:57:04;13.87;;;9.20;;
17345;SDS011;8790;53.590;10.002;2023-10-19T03:59:41;13.30;;;8.83;;
17345;SDS011;8790;53.590;10.002;2023-10-19T04:02:13;12.90;;;7.93;;
17345;SDS011;8790;53.590;10.002;2023-10-19T04:04:46;12.33;;;8.63;;
17345;SDS011;8790;53.590;10.002;2023-10-19T04:07:19;13.67;;;9.33;;
17345;SDS011;8790;53.590;10.002;2023-10-19T04:09:52;13.23;;;8.57;;
17345;SDS011;8790;53.590;10.002;2023-10-19T04:12:45;13.10;;;9.33;;
17345;SDS011;8790;53.590;10.002;2023-10-19T04:15:17;15.13;;;9.47;;
17345;SDS011;8790;53.590;10.002;2023-10-19T04:17:48;13.17;;;9.43;;
17345;SDS011;8790;53.590;10.002;2023-10-19T04:20:20;13.50;;;9.07;;
17345;SDS011;8790;53.590;10.002;2023-10-19T04:23:00;15.03;;;9.50;;
17345;SDS011;8790;53.590;10.002;2023-10-19T04:25:37;14.00;;;9.07;;
17345;SDS011;8790;53.590;10.002;2023-10-19T04:28:09;13.00;;;9.63;;
17345;SDS011;8790;53.590;10.002;2023-10-19T04:30:41;12.63;;;9.17;;
17345;SDS011;8790;53.590;10.002;2023-10-19T04:33:13;14.70;;;9.60;;
17345;SDS011;8790;53.590;10.002;2023-10-19T04:35:46;11.83;;;9.07;;
17345;SDS011;8790;53.590;10.002;2023-10-19T04:38:24;15.03;;;9.53;;
17345;SDS011;8790;53.590;10.002;2023-10-19T04:41:03;13.93;;;9.37;;
17345;SDS011;8790;53.590;10.002;2023-10-19T04:43:38;13.80;;;9.50;;
17345;SDS011;8790;53.590;10.002;2023-10-19T04:46:13;14.60;;;9.53;;
17345;SDS011;8790;53.590;10.002;2023-10-19T04:48:44;13.67;;;9.67;;
17345;SDS011;8790;53.590;10.002;2023-10-19T04:51:16;17.00;;;10.57;;
17345;SDS011;8790;53.590;10.002;2023-10-19T04:53:48;14.60;;;9.80;;
17345;SDS011;8790;53.590;10.002;2023-10-19T04:56:19;15.00;;;9.80;;
17345;SDS011;8790;53.590;10.002;2023-10-19T04:58:52;16.77;;;9.70;;
17345;SDS011;8790;53.590;10.002;2023-10-19T05:01:24;13.63;;;9.13;;
17345;SDS011;8790;53.590;10.002;2023-10-19T05:03:55;13.93;;;9.57;;
17345;SDS011;8790;53.590;10.002;2023-10-19T05:06:26;15.70;;;10.13;;
17345;SDS011;8790;53.590;10.002;2023-10-19T05:08:58;14.20;;;9.40;;
17345;SDS011;8790;53.590;10.002;2023-10-19T05:11:29;15.37;;;9.87;;
17345;SDS011;8790;53.590;10.002;2023-10-19T05:14:02;14.90;;;10.20;;
17345;SDS011;8790;53.590;10.002;2023-10-19T05:16:35;15.63;;;10.13;;
17345;SDS011;8790;53.590;10.002;2023-10-19T05:19:06;14.73;;;9.47;;
17345;SDS011;8790;53.590;10.002;2023-10-19T05:21:37;16.27;;;10.30;;
17345;SDS011;8790;53.590;10.002;2023-10-19T05:24:09;17.57;;;9.83;;
17345;SDS011;8790;53.590;10.002;2023-10-19T05:26:40;15.00;;;9.60;;
17345;SDS011;8790;53.590;10.002;2023-10-19T05:29:13;13.93;;;9.57;;
17345;SDS011;8790;53.590;10.002;2023-10-19T05:31:45;12.43;;;9.17;;
17345;SDS011;8790;53.590;10.002;2023-10-19T05:34:17;17.67;;;10.63;;
17345;SDS011;8790;53.590;10.002;2023-10-19T05:36:49;18.33;;;10.57;;
17345;SDS011;8790;53.590;10.002;2023-10-19T05:39:21;15.30;;;10.13;;
17345;SDS011;8790;53.590;10.002;2023-10-19T05:41:57;15.40;;;9.70;;
17345;SDS011;8790;53.590;10.002;2023-10-19T05:44:31;13.97;;;9.63;;
17345;SDS011;8790;53.590;10.002;2023-10-19T05:47:03;16.07;;;10.57;;
17345;SDS011;8790;53.590;10.002;2023-10-19T05:49:35;16.60;;;10.17;;
17345;SDS011;8790;53.590;10.002;2023-10-19T05:52:07;14.57;;;9.87;;
17345;SDS011;8790;53.590;10.002;2023-10-19T05:54:39;14.90;;;9.83;;
17345;SDS011;8790;53.590;10.002;2023-10-19T05:57:10;15.53;;;10.33;;
17345;SDS011;8790;53.590;10.002;2023-10-19T05:59:43;16.03;;;9.70;;
17345;SDS011;8790;53.590;10.002;2023-10-19T06:02:15;16.47;;;10.43;;
17345;SDS011;8790;53.590;10.002;2023-10-19T06:04:48;14.13;;;9.63;;
17345;SDS011;8790;53.590;10.002;2023-10-19T06:07:22;15.27;;;9.70;;
17345;SDS011;8790;53.590;10.002;2023-10-19T06:09:55;14.87;;;9.30;;
17345;SDS011;8790;53.590;10.002;2023-10-19T06:12:26;16.53;;;10.37;;
17345;SDS011;8790;53.590;10.002;2023-10-19T06:15:00;15.03;;;9.73;;
17345;SDS011;8790;53.590;10.002;2023-10-19T06:17:31;15.80;;;10.17;;
17345;SDS011;8790;53.590;10.002;2023-10-19T06:20:03;15.37;;;10.00;;
17345;SDS011;8790;53.590;10.002;2023-10-19T06:22:37;16.23;;;10.33;;
17345;SDS011;8790;53.590;10.002;2023-10-19T06:25:09;17.90;;;11.03;;
17345;SDS011;8790;53.590;10.002;2023-10-19T06:27:41;17.00;;;10.50;;
17345;SDS011;8790;53.590;10.002;2023-10-19T06:30:14;14.77;;;9.27;;
17345;SDS011;8790;53.590;10.002;2023-10-19T06:32:49;15.03;;;10.37;;
17345;SDS011;8790;53.590;10.002;2023-10-19T06:35:21;14.87;;;10.80;;
17345;SDS011;8790;53.590;10.002;2023-10-19T06:37:53;17.07;;;10.57;;
17345;SDS011;8790;53.590;10.002;2023-10-19T06:40:26;14.23;;;9.63;;
17345;SDS011;8790;53.590;10.002;2023-10-19T06:42:58;16.77;;;10.70;;
17345;SDS011;8790;53.590;10.002;2023-10-19T06:45:33;15.03;;;10.17;;
17345;SDS011;8790;53.590;10.002;2023-10-19T06:48:05;16.37;;;10.77;;
17345;SDS011;8790;53.590;10.002;2023-10-19T06:50:37;16.57;;;10.17;;
17345;SDS011;8790;53.590;10.002;2023-10-19T06:53:09;14.97;;;9.90;;
17345;SDS011;8790;53.590;10.002;2023-10-19T06:55:41;16.10;;;9.50;;
17345;SDS011;8790;53.590;10.002;2023-10-19T06:58:13;16.27;;;10.47;;
17345;SDS011;8790;53.590;10.002;2023-10-19T07:00:46;16.50;;;10.63;;
17345;SDS011;8790;53.590;10.002;2023-10-19T07:03:26;14.17;;;9.77;;
17345;SDS011;8790;53.590;10.002;2023-10-19T07:05:59;15.67;;;10.40;;
17345;SDS011;8790;53.590;10.002;2023-10-19T07:08:32;15.13;;;9.90;;
17345;SDS011;8790;53.590;10.002;2023-10-19T07:11:04;15.40;;;10.47;;
17345;SDS011;8790;53.590;10.002;2023-10-19T07:13:36;14.27;;;10.37;;
17345;SDS011;8790;53.590;10.002;2023-10-19T07:16:12;14.67;;;10.00;;
17345;SDS011;8790;53.590;10.002;2023-10-19T07:18:44;13.87;;;9.80;;
17345;SDS011;8790;53.590;10.002;2023-10-19T07:21:16;17.77;;;10.40;;
17345;SDS011;8790;53.590;10.002;2023-10-19T07:23:47;17.30;;;10.60;;
17345;SDS011;8790;53.590;10.002;2023-10-19T07:26:22;16.03;;;10.63;;
17345;SDS011;8790;53.590;10.002;2023-10-19T07:29:01;18.10;;;11.03;;
17345;SDS011;8790;53.590;10.002;2023-10-19T07:31:36;16.13;;;10.37;;
17345;SDS011;8790;53.590;10.002;2023-10-19T07:34:08;17.43;;;10.57;;
17345;SDS011;8790;53.590;10.002;2023-10-19T07:36:43;18.13;;;10.17;;
17345;SDS011;8790;53.590;10.002;2023-10-19T07:39:14;17.43;;;9.83;;
17345;SDS011;8790;53.590;10.002;2023-10-19T07:41:49;14.43;;;10.27;;
17345;SDS011;8790;53.590;10.002;2023-10-19T07:44:21;15.77;;;10.73;;
17345;SDS011;8790;53.590;10.002;2023-10-19T07:46:54;15.33;;;9.90;;
17345;SDS011;8790;53.590;10.002;2023-10-19T07:49:25;16.40;;;10.87;;
17345;SDS011;8790;53.590;10.002;2023-10-19T07:51:56;15.23;;;9.90;;
17345;SDS011;8790;53.590;10.002;2023-10-19T07:54:29;15.20;;;10.27;;
17345;SDS011;8790;53.590;10.002;2023-10-19T07:57:00;17.63;;;11.57;;
17345;SDS011;8790;53.590;10.002;2023-10-19T07:59:35;19.67;;;12.40;;
17345;SDS011;8790;53.590;10.002;2023-10-19T08:02:08;15.27;;;11.07;;
17345;SDS011;8790;53.590;10.002;2023-10-19T08:04:40;16.10;;;10.77;;
17345;SDS011;8790;53.590;10.002;2023-10-19T08:07:12;16.77;;;10.27;;
17345;SDS011;8790;53.590;10.002;2023-10-19T08:09:43;17.20;;;10.80;;
17345;SDS011;8790;53.590;10.002;2023-10-19T08:12:14;16.43;;;11.53;;
17345;SDS011;8790;53.590;10.002;2023-10-19T08:14:47;15.63;;;10.57;;
17345;SDS011;8790;53.590;10.002;2023-10-19T08:17:20;16.90;;;10.90;;
17345;SDS011;8790;53.590;10.002;2023-10-19T08:19:51;16.30;;;10.67;;
17345;SDS011;8790;53.590;10.002;2023-10-19T08:22:23;16.50;;;11.57;;
17345;SDS011;8790;53.590;10.002;2023-10-19T08:24:54;18.97;;;10.93;;
17345;SDS011;8790;53.590;10.002;2023-10-19T08:27:26;18.03;;;11.30;;
17345;SDS011;8790;53.590;10.002;2023-10-19T08:29:59;19.03;;;11.47;;
17345;SDS011;8790;53.590;10.002;2023-10-19T08:32:32;16.43;;;11.40;;
17345;SDS011;8790;53.590;10.002;2023-10-19T08:35:03;17.73;;;10.63;;
17345;SDS011;8790;53.590;10.002;2023-10-19T08:37:35;18.47;;;11.77;;
17345;SDS011;8790;53.590;10.002;2023-10-19T08:40:07;16.97;;;11.00;;
17345;SDS011;8790;53.590;10.002;2023-10-19T08:42:45;16.87;;;11.07;;
17345;SDS011;8790;53.590;10.002;2023-10-19T08:45:17;14.97;;;10.70;;
17345;SDS011;8790;53.590;10.002;2023-10-19T08:47:52;18.03;;;11.13;;
17345;SDS011;8790;53.590;10.002;2023-10-19T08:50:26;18.27;;;11.03;;
17345;SDS011;8790;53.590;10.002;2023-10-19T08:52:59;19.23;;;11.40;;
17345;SDS011;8790;53.590;10.002;2023-10-19T08:55:32;17.70;;;11.33;;
17345;SDS011;8790;53.590;10.002;2023-10-19T08:58:04;15.63;;;10.90;;
17345;SDS011;8790;53.590;10.002;2023-10-19T09:00:43;18.67;;;11.37;;
17345;SDS011;8790;53.590;10.002;2023-10-19T09:03:18;17.33;;;11.03;;
17345;SDS011;8790;53.590;10.002;2023-10-19T09:05:49;17.73;;;11.97;;
17345;SDS011;8790;53.590;10.002;2023-10-19T09:08:21;19.03;;;12.00;;
17345;SDS011;8790;53.590;10.002;2023-10-19T09:10:53;16.47;;;11.60;;
17345;SDS011;8790;53.590;10.002;2023-10-19T09:13:25;16.10;;;11.33;;
17345;SDS011;8790;53.590;10.002;2023-10-19T09:15:57;20.33;;;11.50;;
17345;SDS011;8790;53.590;10.002;2023-10-19T09:18:37;18.97;;;11.87;;
17345;SDS011;8790;53.590;10.002;2023-10-19T09:21:08;18.70;;;11.83;;
17345;SDS011;8790;53.590;10.002;2023-10-19T09:23:41;18.07;;;11.97;;
17345;SDS011;8790;53.590;10.002;2023-10-19T09:26:13;16.40;;;11.13;;
17345;SDS011;8790;53.590;10.002;2023-10-19T09:28:46;16.90;;;12.23;;
17345;SDS011;8790;53.590;10.002;2023-10-19T09:31:18;17.93;;;12.07;;
17345;SDS011;8790;53.590;10.002;2023-10-19T09:33:52;17.03;;;11.40;;
17345;SDS011;8790;53.590;10.002;2023-10-19T09:36:24;18.10;;;12.33;;
17345;SDS011;8790;53.590;10.002;2023-10-19T09:38:56;17.93;;;11.70;;
17345;SDS011;8790;53.590;10.002;2023-10-19T09:41:28;18.17;;;12.10;;
17345;SDS011;8790;53.590;10.002;2023-10-19T09:44:01;17.03;;;11.83;;
17345;SDS011;8790;53.590;10.002;2023-10-19T09:46:34;18.73;;;12.77;;
17345;SDS011;8790;53.590;10.002;2023-10-19T09:49:11;20.93;;;13.63;;
17345;SDS011;8790;53.590;10.002;2023-10-19T09:51:43;19.13;;;13.47;;
17345;SDS011;8790;53.590;10.002;2023-10-19T09:54:17;19.77;;;12.77;;
17345;SDS011;8790;53.590;10.002;2023-10-19T09:56:55;17.90;;;11.80;;
17345;SDS011;8790;53.590;10.002;2023-10-19T09:59:34;17.27;;;12.17;;
17345;SDS011;8790;53.590;10.002;2023-10-19T10:02:09;18.90;;;12.20;;
17345;SDS011;8790;53.590;10.002;2023-10-19T10:04:44;20.37;;;13.47;;
17345;SDS011;8790;53.590;10.002;2023-10-19T10:07:16;17.40;;;11.80;;
17345;SDS011;8790;53.590;10.002;2023-10-19T10:09:48;16.53;;;12.17;;
17345;SDS011;8790;53.590;10.002;2023-10-19T10:12:20;17.57;;;12.70;;
17345;SDS011;8790;53.590;10.002;2023-10-19T10:14:56;18.10;;;12.53;;
17345;SDS011;8790;53.590;10.002;2023-10-19T10:17:33;18.13;;;12.03;;
17345;SDS011;8790;53.590;10.002;2023-10-19T10:25:55;18.27;;;12.40;;
17345;SDS011;8790;53.590;10.002;2023-10-19T10:28:28;19.87;;;12.10;;
17345;SDS011;8790;53.590;10.002;2023-10-19T10:31:13;16.30;;;11.27;;
17345;SDS011;8790;53.590;10.002;2023-10-19T10:33:46;14.90;;;10.23;;
17345;SDS011;8790;53.590;10.002;2023-10-19T10:36:19;16.73;;;11.33;;
17345;SDS011;8790;53.590;10.002;2023-10-19T10:38:51;17.20;;;11.27;;
17345;SDS011;8790;53.590;10.002;2023-10-19T10:41:23;18.77;;;11.93;;
17345;SDS011;8790;53.590;10.002;2023-10-19T10:43:58;17.47;;;12.10;;
17345;SDS011;8790;53.590;10.002;2023-10-19T10:46:29;16.13;;;11.70;;
17345;SDS011;8790;53.590;10.002;2023-10-19T10:49:07;18.97;;;12.53;;
17345;SDS011;8790;53.590;10.002;2023-10-19T10:51:40;20.43;;;12.63;;
17345;SDS011;8790;53.590;10.002;2023-10-19T10:54:12;16.63;;;11.20;;
17345;SDS011;8790;53.590;10.002;2023-10-19T10:56:44;15.43;;;11.17;;
17345;SDS011;8790;53.590;10.002;2023-10-19T10:59:15;16.03;;;10.53;;
17345;SDS011;8790;53.590;10.002;2023-10-19T11:01:47;17.70;;;11.27;;
17345;SDS011;8790;53.590;10.002;2023-10-19T11:04:19;16.03;;;11.07;;
17345;SDS011;8790;53.590;10.002;2023-10-19T11:06:53;16.63;;;11.67;;
17345;SDS011;8790;53.590;10.002;2023-10-19T11:09:26;15.23;;;11.30;;
17345;SDS011;8790;53.590;10.002;2023-10-19T11:11:58;16.83;;;11.87;;
17345;SDS011;8790;53.590;10.002;2023-10-19T11:14:30;18.70;;;11.73;;
17345;SDS011;8790;53.590;10.002;2023-10-19T11:17:11;15.60;;;11.70;;
17345;SDS011;8790;53.590;10.002;2023-10-19T11:19:43;17.33;;;11.90;;
17345;SDS011;8790;53.590;10.002;2023-10-19T11:22:16;17.57;;;12.40;;
17345;SDS011;8790;53.590;10.002;2023-10-19T11:24:48;18.97;;;13.40;;
17345;SDS011;8790;53.590;10.002;2023-10-19T11:27:24;19.40;;;14.37;;
17345;SDS011;8790;53.590;10.002;2023-10-19T11:29:59;18.40;;;12.27;;
17345;SDS011;8790;53.590;10.002;2023-10-19T11:32:35;17.90;;;12.33;;
17345;SDS011;8790;53.590;10.002;2023-10-19T11:35:10;18.00;;;12.60;;
17345;SDS011;8790;53.590;10.002;2023-10-19T11:37:49;19.67;;;11.83;;
17345;SDS011;8790;53.590;10.002;2023-10-19T11:40:23;18.77;;;12.80;;
17345;SDS011;8790;53.590;10.002;2023-10-19T11:42:55;18.17;;;12.30;;
17345;SDS011;8790;53.590;10.002;2023-10-19T11:45:28;17.80;;;11.97;;
17345;SDS011;8790;53.590;10.002;2023-10-19T11:48:00;17.53;;;12.27;;
17345;SDS011;8790;53.590;10.002;2023-10-19T11:50:31;18.83;;;12.60;;
17345;SDS011;8790;53.590;10.002;2023-10-19T11:53:04;18.23;;;12.87;;
17345;SDS011;8790;53.590;10.002;2023-10-19T11:55:35;18.27;;;11.93;;
17345;SDS011;8790;53.590;10.002;2023-10-19T11:58:07;15.97;;;12.17;;
17345;SDS011;8790;53.590;10.002;2023-10-19T12:00:41;17.37;;;12.77;;
17345;SDS011;8790;53.590;10.002;2023-10-19T12:03:13;17.07;;;12.17;;
17345;SDS011;8790;53.590;10.002;2023-10-19T12:05:45;18.50;;;13.20;;
17345;SDS011;8790;53.590;10.002;2023-10-19T12:08:17;16.97;;;12.07;;
17345;SDS011;8790;53.590;10.002;2023-10-19T12:10:49;17.90;;;12.33;;
17345;SDS011;8790;53.590;10.002;2023-10-19T12:13:21;14.40;;;11.37;;
17345;SDS011;8790;53.590;10.002;2023-10-19T12:15:54;17.47;;;11.83;;
17345;SDS011;8790;53.590;10.002;2023-10-19T12:18:25;16.53;;;11.27;;
17345;SDS011;8790;53.590;10.002;2023-10-19T12:20:58;16.73;;;12.23;;
17345;SDS011;8790;53.590;10.002;2023-10-19T12:23:32;17.73;;;11.07;;
17345;SDS011;8790;53.590;10.002;2023-10-19T12:26:03;15.00;;;11.10;;
17345;SDS011;8790;53.590;10.002;2023-10-19T12:28:41;17.37;;;11.97;;
17345;SDS011;8790;53.590;10.002;2023-10-19T12:31:13;18.37;;;11.97;;
17345;SDS011;8790;53.590;10.002;2023-10-19T12:33:48;15.47;;;11.43;;
17345;SDS011;8790;53.590;10.002;2023-10-19T12:36:20;16.27;;;11.17;;
17345;SDS011;8790;53.590;10.002;2023-10-19T12:39:03;15.23;;;11.03;;
17345;SDS011;8790;53.590;10.002;2023-10-19T12:41:36;15.13;;;11.30;;
17345;SDS011;8790;53.590;10.002;2023-10-19T12:44:07;19.27;;;11.93;;
17345;SDS011;8790;53.590;10.002;2023-10-19T12:46:39;16.27;;;11.50;;
17345;SDS011;8790;53.590;10.002;2023-10-19T12:49:11;20.40;;;12.03;;
17345;SDS011;8790;53.590;10.002;2023-10-19T12:51:46;20.37;;;12.17;;
17345;SDS011;8790;53.590;10.002;2023-10-19T12:54:19;17.13;;;11.63;;
17345;SDS011;8790;53.590;10.002;2023-10-19T12:56:51;17.80;;;11.73;;
17345;SDS011;8790;53.590;10.002;2023-10-19T12:59:23;17.87;;;11.90;;
17345;SDS011;8790;53.590;10.002;2023-10-19T13:01:55;17.40;;;12.00;;
17345;SDS011;8790;53.590;10.002;2023-10-19T13:04:28;18.80;;;12.13;;
17345;SDS011;8790;53.590;10.002;2023-10-19T13:07:01;17.30;;;11.53;;
17345;SDS011;8790;53.590;10.002;2023-10-19T13:09:34;16.43;;;11.37;;
17345;SDS011;8790;53.590;10.002;2023-10-19T13:12:06;16.77;;;11.57;;
17345;SDS011;8790;53.590;10.002;2023-10-19T13:14:38;16.70;;;11.57;;
17345;SDS011;8790;53.590;10.002;2023-10-19T13:17:09;15.30;;;11.47;;
17345;SDS011;8790;53.590;10.002;2023-10-19T13:19:41;19.00;;;12.53;;
17345;SDS011;8790;53.590;10.002;2023-10-19T13:22:12;18.17;;;12.10;;
17345;SDS011;8790;53.590;10.002;2023-10-19T13:24:46;18.50;;;11.97;;
17345;SDS011;8790;53.590;10.002;2023-10-19T13:27:18;18.07;;;12.37;;
17345;SDS011;8790;53.590;10.002;2023-10-19T13:29:49;16.73;;;12.03;;
17345;SDS011;8790;53.590;10.002;2023-10-19T13:32:21;17.70;;;11.53;;
17345;SDS011;8790;53.590;10.002;2023-10-19T13:34:52;15.93;;;11.30;;
17345;SDS011;8790;53.590;10.002;2023-10-19T13:37:24;17.30;;;11.67;;
17345;SDS011;8790;53.590;10.002;2023-10-19T13:39:58;16.23;;;11.83;;
17345;SDS011;8790;53.590;10.002;2023-10-19T13:42:29;19.70;;;12.40;;
17345;SDS011;8790;53.590;10.002;2023-10-19T13:45:00;18.87;;;11.73;;
17345;SDS011;8790;53.590;10.002;2023-10-19T13:47:32;17.80;;;11.43;;
17345;SDS011;8790;53.590;10.002;2023-10-19T13:50:04;18.83;;;11.97;;
17345;SDS011;8790;53.590;10.002;2023-10-19T13:52:37;16.70;;;11.77;;
17345;SDS011;8790;53.590;10.002;2023-10-19T13:55:11;17.73;;;11.73;;
17345;SDS011;8790;53.590;10.002;2023-10-19T13:57:44;21.87;;;12.30;;
17345;SDS011;8790;53.590;10.002;2023-10-19T14:00:16;15.00;;;11.27;;
17345;SDS011;8790;53.590;10.002;2023-10-19T14:02:54;18.13;;;12.40;;
17345;SDS011;8790;53.590;10.002;2023-10-19T14:05:26;16.97;;;11.50;;
17345;SDS011;8790;53.590;10.002;2023-10-19T14:07:57;16.53;;;11.53;;
17345;SDS011;8790;53.590;10.002;2023-10-19T14:10:30;18.10;;;11.77;;
17345;SDS011;8790;53.590;10.002;2023-10-19T14:13:02;16.13;;;12.10;;
17345;SDS011;8790;53.590;10.002;2023-10-19T14:15:36;16.60;;;11.50;;
17345;SDS011;8790;53.590;10.002;2023-10-19T14:18:08;15.83;;;12.00;;
17345;SDS011;8790;53.590;10.002;2023-10-19T14:20:40;14.73;;;10.80;;
17345;SDS011;8790;53.590;10.002;2023-10-19T14:23:12;15.53;;;11.40;;
17345;SDS011;8790;53.590;10.002;2023-10-19T14:25:44;18.10;;;11.57;;
17345;SDS011;8790;53.590;10.002;2023-10-19T14:28:17;16.23;;;11.13;;
17345;SDS011;8790;53.590;10.002;2023-10-19T14:30:48;18.17;;;11.37;;
17345;SDS011;8790;53.590;10.002;2023-10-19T14:33:20;16.43;;;10.93;;
17345;SDS011;8790;53.590;10.002;2023-10-19T14:35:51;16.10;;;10.90;;
17345;SDS011;8790;53.590;10.002;2023-10-19T14:38:23;17.20;;;11.43;;
17345;SDS011;8790;53.590;10.002;2023-10-19T14:40:58;16.13;;;11.90;;
17345;SDS011;8790;53.590;10.002;2023-10-19T14:43:30;19.17;;;12.40;;
17345;SDS011;8790;53.590;10.002;2023-10-19T14:46:04;17.70;;;11.43;;
17345;SDS011;8790;53.590;10.002;2023-10-19T14:48:36;17.70;;;12.00;;
17345;SDS011;8790;53.590;10.002;2023-10-19T14:51:07;17.30;;;11.60;;
17345;SDS011;8790;53.590;10.002;2023-10-19T14:53:39;16.70;;;11.73;;
17345;SDS011;8790;53.590;10.002;2023-10-19T14:56:11;16.93;;;11.30;;
17345;SDS011;8790;53.590;10.002;2023-10-19T14:58:43;18.70;;;11.57;;
17345;SDS011;8790;53.590;10.002;2023-10-19T15:01:21;19.73;;;11.70;;
17345;SDS011;8790;53.590;10.002;2023-10-19T15:03:55;17.93;;;11.73;;
17345;SDS011;8790;53.590;10.002;2023-10-19T15:06:27;16.17;;;11.50;;
17345;SDS011;8790;53.590;10.002;2023-10-19T15:08:59;19.73;;;12.63;;